createdAt,value
2018-04-11T00:02:07.642Z,95594.23
2018-04-11T00:04:37.372Z,95602.08
2018-04-11T00:07:03.372Z,95600.61
2018-04-11T00:09:30.426Z,95607.54
2018-04-11T00:11:56.308Z,95607.08
2018-04-11T00:14:22.187Z,95602.25
2018-04-11T00:16:48.022Z,95603.65
2018-04-11T00:19:13.938Z,95603.75
2018-04-11T00:21:42.349Z,95591.36
2018-04-11T00:24:08.256Z,95583.64
2018-04-11T00:26:37.806Z,95584.01
2018-04-11T00:29:03.709Z,95594.14
2018-04-11T00:31:33.353Z,95594.71
2018-04-11T00:33:59.280Z,95593.37
2018-04-11T00:36:26.374Z,95595.17
2018-04-11T00:38:52.271Z,95591.68
2018-04-11T00:41:21.360Z,95588.48
2018-04-11T00:43:47.246Z,95585.98
2018-04-11T00:46:16.297Z,95584.25
2018-04-11T00:48:42.156Z,95587.92
2018-04-11T00:51:08.082Z,95586.15
2018-04-11T00:53:33.950Z,95590.84
2018-04-11T00:55:59.852Z,95582.93
2018-04-11T00:58:27.316Z,95583.84
2018-04-11T01:00:53.206Z,95575.16
2018-04-11T01:03:21.982Z,95583.99
2018-04-11T01:05:47.848Z,95587.20
2018-04-11T01:08:17.307Z,95587.78
2018-04-11T01:10:43.226Z,95584.14
2018-04-11T01:13:11.758Z,95589.03
2018-04-11T01:15:37.602Z,95584.58
2018-04-11T01:18:06.385Z,95585.14
2018-04-11T01:20:32.239Z,95584.52
2018-04-11T01:23:01.355Z,95580.44
2018-04-11T01:25:27.198Z,95577.31
2018-04-11T01:27:53.046Z,95575.41
2018-04-11T01:30:18.876Z,95575.83
2018-04-11T01:32:44.744Z,95576.62
2018-04-11T01:35:13.974Z,95582.65
2018-04-11T01:37:39.875Z,95585.31
2018-04-11T01:40:09.408Z,95577.56
2018-04-11T01:42:35.316Z,95577.86
2018-04-11T01:45:03.119Z,95574.66
2018-04-11T01:47:29.003Z,95571.22
2018-04-11T01:49:58.438Z,95578.88
2018-04-11T01:52:24.282Z,95576.09
2018-04-11T01:54:51.834Z,95580.37
2018-04-11T01:57:21.616Z,95580.08
2018-04-11T01:59:47.576Z,95578.75
2018-04-11T02:02:13.497Z,95584.26
2018-04-11T02:04:39.382Z,95581.66
2018-04-11T02:07:05.281Z,95576.73
2018-04-11T02:09:31.161Z,95581.47
2018-04-11T02:11:58.885Z,95581.44
2018-04-11T02:14:24.816Z,95584.77
2018-04-11T02:16:54.512Z,95579.48
2018-04-11T02:19:20.388Z,95582.52
2018-04-11T02:21:47.791Z,95581.75
2018-04-11T02:24:13.614Z,95579.16
2018-04-11T02:26:42.758Z,95578.23
2018-04-11T02:29:08.667Z,95579.70
2018-04-11T02:31:37.932Z,95587.11
2018-04-11T02:34:03.799Z,95583.42
2018-04-11T02:36:32.911Z,95583.03
2018-04-11T02:38:58.795Z,95586.01
2018-04-11T02:41:24.680Z,95583.34
2018-04-11T02:43:50.526Z,95578.92
2018-04-11T02:46:16.402Z,95583.13
2018-04-11T02:48:43.610Z,95586.63
2018-04-11T02:51:09.448Z,95595.73
2018-04-11T02:53:38.734Z,95589.13
2018-04-11T02:56:04.600Z,95586.48
2018-04-11T02:58:34.343Z,95588.02
2018-04-11T03:01:00.194Z,95591.08
2018-04-11T03:03:28.877Z,95594.33
2018-04-11T03:05:54.722Z,95588.52
2018-04-11T03:08:22.213Z,95592.76
2018-04-11T03:10:48.098Z,95597.94
2018-04-11T03:13:16.797Z,95594.05
2018-04-11T03:15:42.683Z,95592.44
2018-04-11T03:18:08.575Z,95592.80
2018-04-11T03:20:34.469Z,95592.98
2018-04-11T03:23:00.352Z,95592.69
2018-04-11T03:25:29.575Z,95590.03
2018-04-11T03:27:55.455Z,95588.02
2018-04-11T03:30:23.379Z,95586.94
2018-04-11T03:32:49.229Z,95592.33
2018-04-11T03:35:18.013Z,95582.91
2018-04-11T03:37:43.858Z,95587.72
2018-04-11T03:40:13.011Z,95584.92
2018-04-11T03:42:38.881Z,95593.17
2018-04-11T03:45:08.569Z,95594.58
2018-04-11T03:47:34.436Z,95590.73
2018-04-11T03:50:03.726Z,95592.42
2018-04-11T03:52:29.622Z,95589.05
2018-04-11T03:54:55.515Z,95581.34
2018-04-11T03:57:21.400Z,95580.72
2018-04-11T03:59:47.243Z,95587.24
2018-04-11T04:02:14.204Z,95585.77
2018-04-11T04:04:40.080Z,95586.09
2018-04-11T04:07:09.686Z,95590.19
2018-04-11T04:09:35.540Z,95589.23
2018-04-11T04:12:04.957Z,95595.16
2018-04-11T04:14:43.715Z,95595.61
2018-04-11T04:17:21.835Z,95601.44
2018-04-11T04:22:47.707Z,95601.38
2018-04-11T04:25:13.604Z,95596.88
2018-04-11T04:30:02.985Z,95598.02
2018-04-11T04:32:28.851Z,95601.86
2018-04-11T04:34:54.718Z,95604.33
2018-04-11T04:37:20.632Z,95601.50
2018-04-11T04:39:46.496Z,95603.58
2018-04-11T04:42:12.342Z,95603.42
2018-04-11T04:44:38.238Z,95597.74
2018-04-11T04:47:04.120Z,95600.90
2018-04-11T04:49:30.077Z,95603.78
2018-04-11T04:51:55.990Z,95606.03
2018-04-11T04:54:21.827Z,95604.98
2018-04-11T04:56:47.661Z,95603.89
2018-04-11T04:59:13.502Z,95612.61
2018-04-11T05:01:39.386Z,95603.34
2018-04-11T05:04:05.279Z,95608.75
2018-04-11T05:06:31.132Z,95611.67
2018-04-11T05:08:57.018Z,95609.22
2018-04-11T05:11:22.868Z,95614.43
2018-04-11T05:13:48.737Z,95616.14
2018-04-11T05:16:14.632Z,95619.67
2018-04-11T05:18:40.503Z,95616.63
2018-04-11T05:21:06.408Z,95615.31
2018-04-11T05:23:32.268Z,95622.74
2018-04-11T05:25:58.155Z,95623.52
2018-04-11T05:28:24.033Z,95630.59
2018-04-11T05:30:50.003Z,95632.10
2018-04-11T05:33:15.847Z,95635.69
2018-04-11T05:35:41.799Z,95645.11
2018-04-11T05:38:07.676Z,95643.09
2018-04-11T05:40:33.581Z,95647.84
2018-04-11T05:42:59.489Z,95644.62
2018-04-11T05:45:25.332Z,95644.31
2018-04-11T05:47:51.192Z,95646.26
2018-04-11T05:50:17.095Z,95649.89
2018-04-11T05:52:42.964Z,95652.86
2018-04-11T05:55:08.999Z,95644.19
2018-04-11T05:57:34.914Z,95646.25
2018-04-11T06:00:00.774Z,95644.94
2018-04-11T06:02:26.651Z,95645.22
2018-04-11T06:04:52.545Z,95645.36
2018-04-11T06:07:18.454Z,95650.03
2018-04-11T06:09:44.339Z,95650.67
2018-04-11T06:12:10.187Z,95647.20
2018-04-11T06:14:36.589Z,95638.96
2018-04-11T06:17:03.525Z,95635.78
2018-04-11T06:19:29.365Z,95641.57
2018-04-11T06:21:55.230Z,95642.98
2018-04-11T06:24:21.096Z,95638.00
2018-04-11T06:26:46.974Z,95642.02
2018-04-11T06:29:16.787Z,95644.16
2018-04-11T06:31:42.676Z,95641.37
2018-04-11T06:34:10.030Z,95640.42
2018-04-11T06:36:35.903Z,95640.14
2018-04-11T06:39:05.118Z,95633.29
2018-04-11T06:41:30.986Z,95635.84
2018-04-11T06:44:00.368Z,95638.98
2018-04-11T06:46:26.246Z,95638.38
2018-04-11T06:48:55.639Z,95638.12
2018-04-11T06:51:21.522Z,95636.80
2018-04-11T06:53:48.938Z,95637.73
2018-04-11T06:56:14.803Z,95638.30
2018-04-11T06:58:40.776Z,95637.49
2018-04-11T07:01:06.559Z,95635.56
2018-04-11T07:03:32.426Z,95638.56
2018-04-11T07:06:02.026Z,95637.53
2018-04-11T07:10:59.439Z,95639.89
2018-04-11T07:13:29.042Z,95638.53
2018-04-11T07:15:54.902Z,95641.63
2018-04-11T07:18:20.771Z,95635.81
2018-04-11T07:20:46.614Z,95634.26
2018-04-11T07:23:12.526Z,95629.95
2018-04-11T07:25:39.279Z,95635.61
2018-04-11T07:28:05.133Z,95626.16
2018-04-11T07:33:06.286Z,95632.78
2018-04-11T07:38:03.713Z,95623.62
2018-04-11T07:40:29.585Z,95625.91
2018-04-11T07:42:55.466Z,95630.17
2018-04-11T07:45:25.232Z,95622.55
2018-04-11T07:47:51.077Z,95619.18
2018-04-11T07:50:16.951Z,95624.41
2018-04-11T07:52:42.862Z,95629.30
2018-04-11T07:55:08.770Z,95622.31
2018-04-11T07:57:34.608Z,95621.13
2018-04-11T08:00:00.470Z,95622.80
2018-04-11T08:02:26.348Z,95616.28
2018-04-11T08:04:52.265Z,95618.15
2018-04-11T08:07:19.915Z,95617.72
2018-04-11T08:09:45.828Z,95624.23
2018-04-11T08:14:43.186Z,95611.13
2018-04-11T08:17:09.014Z,95612.67
2018-04-11T08:19:34.902Z,95613.83
2018-04-11T08:22:00.806Z,95603.13
2018-04-11T08:24:39.864Z,95606.45
2018-04-11T08:27:05.733Z,95596.83
2018-04-11T08:29:31.573Z,95591.63
2018-04-11T08:34:29.110Z,95593.90
2018-04-11T08:36:54.995Z,95588.59
2018-04-11T08:39:20.895Z,95597.25
2018-04-11T08:41:46.753Z,95594.35
2018-04-11T08:44:12.618Z,95594.48
2018-04-11T08:46:38.478Z,95594.20
2018-04-11T08:49:04.365Z,95592.67
2018-04-11T08:51:30.267Z,95593.95
2018-04-11T08:53:56.118Z,95578.87
2018-04-11T08:56:21.978Z,95596.47
2018-04-11T08:58:47.872Z,95592.72
2018-04-11T09:01:13.750Z,95593.89
2018-04-11T09:03:39.639Z,95598.42
2018-04-11T09:06:07.566Z,95604.28
2018-04-11T09:08:33.493Z,95592.97
2018-04-11T09:11:00.549Z,95599.31
2018-04-11T09:13:26.410Z,95595.73
2018-04-11T09:15:58.475Z,95596.50
2018-04-11T09:18:24.366Z,95602.67
2018-04-11T09:20:50.427Z,95603.37
2018-04-11T09:23:16.326Z,95596.78
2018-04-11T09:25:42.185Z,95587.77
2018-04-11T09:28:08.014Z,95579.92
2018-04-11T09:30:33.902Z,95581.11
2018-04-11T09:33:03.255Z,95580.13
2018-04-11T09:35:29.081Z,95574.66
2018-04-11T09:37:56.541Z,95573.75
2018-04-11T09:40:22.425Z,95576.19
2018-04-11T09:42:52.065Z,95579.75
2018-04-11T09:45:17.959Z,95582.64
2018-04-11T09:47:46.819Z,95579.31
2018-04-11T09:50:12.690Z,95581.79
2018-04-11T09:52:42.134Z,95577.80
2018-04-11T09:55:08.014Z,95576.72
2018-04-11T09:57:35.977Z,95566.77
2018-04-11T10:00:01.913Z,95567.27
2018-04-11T10:02:27.796Z,95562.12
2018-04-11T10:04:53.697Z,95557.08
2018-04-11T10:07:19.635Z,95557.00
2018-04-11T10:09:48.648Z,95547.02
2018-04-11T10:12:14.530Z,95547.38
2018-04-11T10:14:44.121Z,95551.67
2018-04-11T10:17:10.092Z,95546.48
2018-04-11T10:19:36.451Z,95540.77
2018-04-11T10:22:02.409Z,95537.07
2018-04-11T10:24:32.228Z,95542.59
2018-04-11T10:26:58.110Z,95542.44
2018-04-11T10:29:25.860Z,95536.82
2018-04-11T10:31:51.771Z,95537.34
2018-04-11T10:34:21.448Z,95534.41
2018-04-11T10:36:47.363Z,95537.48
2018-04-11T10:39:13.202Z,95535.66
2018-04-11T10:41:39.049Z,95533.95
2018-04-11T10:44:04.920Z,95533.97
2018-04-11T10:46:32.154Z,95520.53
2018-04-11T10:48:58.037Z,95519.83
2018-04-11T10:51:26.737Z,95522.45
2018-04-11T10:53:52.641Z,95530.39
2018-04-11T10:56:21.376Z,95522.73
2018-04-11T10:58:47.230Z,95517.80
2018-04-11T11:03:45.405Z,95518.16
2018-04-11T11:06:11.305Z,95511.66
2018-04-11T11:08:37.178Z,95514.09
2018-04-11T11:11:06.064Z,95511.34
2018-04-11T11:13:31.918Z,95510.02
2018-04-11T11:15:57.768Z,95515.06
2018-04-11T11:18:23.613Z,95515.43
2018-04-11T11:20:56.702Z,95510.89
2018-04-11T11:23:22.575Z,95504.34
2018-04-11T11:25:48.459Z,95508.23
2018-04-11T11:28:14.388Z,95506.49
2018-04-11T11:30:40.226Z,95506.50
2018-04-11T11:33:07.005Z,95501.51
2018-04-11T11:35:32.930Z,95494.53
2018-04-11T11:38:02.447Z,95493.20
2018-04-11T11:40:28.308Z,95491.75
2018-04-11T11:42:56.394Z,95489.45
2018-04-11T11:45:22.259Z,95474.84
2018-04-11T11:47:50.684Z,95468.69
2018-04-11T11:50:16.525Z,95464.88
2018-04-11T11:52:42.374Z,95470.32
2018-04-11T11:55:08.253Z,95468.69
2018-04-11T11:57:34.152Z,95465.27
2018-04-11T12:00:03.137Z,95464.11
2018-04-11T12:02:29.047Z,95466.83
2018-04-11T12:04:58.347Z,95466.69
2018-04-11T12:07:24.261Z,95465.27
2018-04-11T12:09:52.466Z,95464.22
2018-04-11T12:12:18.327Z,95460.91
2018-04-11T12:14:47.269Z,95460.03
2018-04-11T12:17:13.121Z,95455.50
2018-04-11T12:19:42.630Z,95456.14
2018-04-11T12:22:08.492Z,95454.52
2018-04-11T12:24:38.449Z,95450.95
2018-04-11T12:27:04.339Z,95448.53
2018-04-11T12:29:30.205Z,95448.84
2018-04-11T12:31:56.081Z,95449.80
2018-04-11T12:34:21.960Z,95453.94
2018-04-11T12:36:48.281Z,95440.27
2018-04-11T12:39:14.116Z,95438.34
2018-04-11T12:41:42.994Z,95438.72
2018-04-11T12:44:08.852Z,95442.42
2018-04-11T12:46:38.523Z,95441.51
2018-04-11T12:49:04.406Z,95441.45
2018-04-11T12:51:33.320Z,95438.70
2018-04-11T12:53:59.200Z,95437.52
2018-04-11T12:56:28.850Z,95434.52
2018-04-11T12:58:54.695Z,95435.83
2018-04-11T13:01:22.201Z,95438.95
2018-04-11T13:03:48.018Z,95423.23
2018-04-11T13:06:13.886Z,95432.07
2018-04-11T13:08:39.781Z,95431.03
2018-04-11T13:11:05.646Z,95429.03
2018-04-11T13:13:33.740Z,95423.36
2018-04-11T13:16:00.530Z,95421.75
2018-04-11T13:18:28.212Z,95414.27
2018-04-11T13:20:54.123Z,95409.20
2018-04-11T13:23:23.836Z,95407.40
2018-04-11T13:25:49.728Z,95408.58
2018-04-11T13:28:19.289Z,95398.66
2018-04-11T13:30:45.108Z,95401.98
2018-04-11T13:33:12.826Z,95392.52
2018-04-11T13:35:38.681Z,95385.08
2018-04-11T13:38:08.145Z,95374.25
2018-04-11T13:40:34.042Z,95373.65
2018-04-11T13:42:59.963Z,95374.92
2018-04-11T13:45:25.829Z,95377.55
2018-04-11T13:47:51.728Z,95366.17
2018-04-11T13:50:18.913Z,95361.53
2018-04-11T13:52:44.778Z,95364.27
2018-04-11T13:55:14.541Z,95358.65
2018-04-11T13:57:40.474Z,95362.56
2018-04-11T14:00:09.686Z,95359.74
2018-04-11T14:02:35.555Z,95361.10
2018-04-11T14:05:02.887Z,95360.83
2018-04-11T14:07:28.753Z,95356.45
2018-04-11T14:09:57.655Z,95348.88
2018-04-11T14:12:23.507Z,95343.57
2018-04-11T14:14:57.236Z,95338.42
2018-04-11T14:17:23.140Z,95342.97
2018-04-11T14:19:49.037Z,95337.34
2018-04-11T14:22:14.933Z,95337.53
2018-04-11T14:24:40.813Z,95337.47
2018-04-11T14:27:06.698Z,95332.45
2018-04-11T14:29:32.621Z,95333.77
2018-04-11T14:31:58.596Z,95327.48
2018-04-11T14:34:24.490Z,95327.89
2018-04-11T14:36:53.300Z,95326.06
2018-04-11T14:39:19.169Z,95322.40
2018-04-11T14:41:47.759Z,95317.94
2018-04-11T14:44:13.659Z,95313.94
2018-04-11T14:49:10.504Z,95310.30
2018-04-11T14:51:38.277Z,95313.26
2018-04-11T14:54:04.126Z,95314.23
2018-04-11T14:56:29.988Z,95310.78
2018-04-11T14:58:55.885Z,95315.44
2018-04-11T15:01:21.770Z,95307.03
2018-04-11T15:03:49.434Z,95304.02
2018-04-11T15:06:15.293Z,95309.70
2018-04-11T15:08:44.720Z,95312.74
2018-04-11T15:11:10.607Z,95308.73
2018-04-11T15:13:39.735Z,95305.22
2018-04-11T15:16:05.596Z,95293.03
2018-04-11T15:18:34.625Z,95293.45
2018-04-11T15:21:00.518Z,95293.02
2018-04-11T15:23:27.925Z,95293.47
2018-04-11T15:25:53.825Z,95292.72
2018-04-11T15:28:22.556Z,95295.32
2018-04-11T15:30:48.465Z,95294.39
2018-04-11T15:33:14.326Z,95291.52
2018-04-11T15:35:40.201Z,95296.73
2018-04-11T15:38:06.099Z,95284.25
2018-04-11T15:40:35.585Z,95284.48
2018-04-11T15:43:01.500Z,95289.47
2018-04-11T15:45:29.334Z,95280.31
2018-04-11T15:47:55.202Z,95290.73
2018-04-11T15:50:23.973Z,95283.20
2018-04-11T15:52:49.866Z,95289.53
2018-04-11T15:55:18.858Z,95287.16
2018-04-11T15:57:44.749Z,95286.56
2018-04-11T16:00:14.363Z,95288.16
2018-04-11T16:02:40.236Z,95281.30
2018-04-11T16:05:08.107Z,95280.19
2018-04-11T16:07:33.957Z,95278.80
2018-04-11T16:09:59.835Z,95275.02
2018-04-11T16:12:25.718Z,95268.44
2018-04-11T16:14:57.294Z,95265.03
2018-04-11T16:17:23.159Z,95261.70
2018-04-11T16:19:49.059Z,95262.69
2018-04-11T16:22:14.930Z,95262.73
2018-04-11T16:24:40.858Z,95263.88
2018-04-11T16:27:10.459Z,95255.56
2018-04-11T16:29:36.329Z,95253.65
2018-04-11T16:32:05.559Z,95246.59
2018-04-11T16:34:31.405Z,95253.31
2018-04-11T16:36:58.638Z,95251.22
2018-04-11T16:39:24.461Z,95254.60
2018-04-11T16:41:53.338Z,95252.33
2018-04-11T16:44:19.201Z,95250.16
2018-04-11T16:46:45.084Z,95242.72
2018-04-11T16:49:10.957Z,95252.69
2018-04-11T16:51:36.850Z,95250.30
2018-04-11T16:54:07.186Z,95244.47
2018-04-11T16:56:33.025Z,95243.41
2018-04-11T16:59:00.298Z,95242.75
2018-04-11T17:01:26.134Z,95244.05
2018-04-11T17:03:56.158Z,95243.31
2018-04-11T17:06:22.022Z,95254.05
2018-04-11T17:08:49.409Z,95244.53
2018-04-11T17:11:15.305Z,95238.78
2018-04-11T17:13:44.683Z,95234.73
2018-04-11T17:16:10.621Z,95239.67
2018-04-11T17:18:38.670Z,95239.05
2018-04-11T17:21:16.846Z,95235.86
2018-04-11T17:23:55.056Z,95235.78
2018-04-11T17:26:33.456Z,95229.08
2018-04-11T17:29:11.752Z,95232.08
2018-04-11T17:31:37.665Z,95230.72
2018-04-11T17:34:03.557Z,95229.13
2018-04-11T17:36:29.397Z,95224.52
2018-04-11T17:38:55.322Z,95227.00
2018-04-11T17:41:21.212Z,95224.61
2018-04-11T17:43:47.152Z,95214.47
2018-04-11T17:46:13.006Z,95220.66
2018-04-11T17:48:38.882Z,95221.77
2018-04-11T17:51:04.783Z,95219.12
2018-04-11T17:53:30.656Z,95211.16
2018-04-11T17:55:56.541Z,95210.38
2018-04-11T17:58:22.379Z,95217.91
2018-04-11T18:00:48.272Z,95208.73
2018-04-11T18:03:14.170Z,95211.48
2018-04-11T18:05:40.009Z,95209.53
2018-04-11T18:08:05.877Z,95191.31
2018-04-11T18:10:31.789Z,95205.27
2018-04-11T18:12:57.670Z,95209.95
2018-04-11T18:15:23.573Z,95202.30
2018-04-11T18:17:49.437Z,95209.23
2018-04-11T18:20:15.280Z,95207.18
2018-04-11T18:22:41.158Z,95216.45
2018-04-11T18:25:07.486Z,95212.41
2018-04-11T18:27:33.386Z,95210.36
2018-04-11T18:29:59.285Z,95208.30
2018-04-11T18:32:25.174Z,95216.16
2018-04-11T18:34:51.043Z,95213.69
2018-04-11T18:37:16.898Z,95213.05
2018-04-11T18:39:42.832Z,95216.17
2018-04-11T18:42:08.703Z,95215.64
2018-04-11T18:44:34.611Z,95212.11
2018-04-11T18:47:00.623Z,95218.59
2018-04-11T18:49:28.324Z,95216.55
2018-04-11T18:51:54.237Z,95219.84
2018-04-11T18:54:20.122Z,95218.53
2018-04-11T18:56:46.024Z,95214.67
2018-04-11T18:59:11.982Z,95221.31
2018-04-11T19:01:37.900Z,95213.04
2018-04-11T19:04:07.587Z,95218.53
2018-04-11T19:06:35.836Z,95218.72
2018-04-11T19:09:01.783Z,95213.13
2018-04-11T19:11:27.721Z,95206.44
2018-04-11T19:13:53.862Z,95207.38
2018-04-11T19:16:19.755Z,95201.23
2018-04-11T19:18:45.674Z,95205.63
2018-04-11T19:21:11.571Z,95199.78
2018-04-11T19:23:37.455Z,95201.19
2018-04-11T19:26:03.334Z,95207.50
2018-04-11T19:28:29.207Z,95199.34
2018-04-11T19:30:55.986Z,95192.47
2018-04-11T19:33:22.067Z,95196.16
2018-04-11T19:35:50.627Z,95186.86
2018-04-11T19:38:16.519Z,95187.60
2018-04-11T19:40:46.197Z,95185.81
2018-04-11T19:43:12.076Z,95178.34
2018-04-11T19:45:41.762Z,95181.69
2018-04-11T19:48:07.634Z,95185.52
2018-04-11T19:50:33.576Z,95179.40
2018-04-11T19:52:59.443Z,95169.53
2018-04-11T19:55:25.746Z,95171.50
2018-04-11T19:57:51.640Z,95133.97
2018-04-11T20:00:17.487Z,95167.93
2018-04-11T20:02:48.238Z,95168.98
2018-04-11T20:05:14.149Z,95163.58
2018-04-11T20:07:42.019Z,95158.64
2018-04-11T20:10:10.091Z,95164.25
2018-04-11T20:12:36.057Z,95156.98
2018-04-11T20:15:01.967Z,95149.03
2018-04-11T20:17:31.662Z,95149.84
2018-04-11T20:19:57.620Z,95143.19
2018-04-11T20:22:26.717Z,95143.70
2018-04-11T20:24:52.702Z,95138.75
2018-04-11T20:27:18.582Z,95140.13
2018-04-11T20:29:44.519Z,95138.28
2018-04-11T20:32:10.400Z,95131.55
2018-04-11T20:34:37.086Z,95129.02
2018-04-11T20:37:04.435Z,95132.59
2018-04-11T20:39:32.298Z,95126.91
2018-04-11T20:41:58.172Z,95130.09
2018-04-11T20:44:26.558Z,95118.92
2018-04-11T20:46:52.482Z,95114.66
2018-04-11T20:49:21.795Z,95108.91
2018-04-11T20:51:47.693Z,95107.19
2018-04-11T20:54:17.469Z,95100.94
2018-04-11T20:56:43.402Z,95088.88
2018-04-11T20:59:10.617Z,95087.66
2018-04-11T21:01:36.465Z,95092.56
2018-04-11T21:04:02.339Z,95092.98
2018-04-11T21:06:28.268Z,95081.47
2018-04-11T21:08:54.126Z,95081.14
2018-04-11T21:11:22.561Z,95078.40
2018-04-11T21:13:48.372Z,95070.56
2018-04-11T21:16:17.449Z,95074.36
2018-04-11T21:18:43.330Z,95072.64
2018-04-11T21:21:12.727Z,95063.56
2018-04-11T21:23:38.597Z,95058.59
2018-04-11T21:26:08.062Z,95063.61
2018-04-11T21:28:33.898Z,95067.63
2018-04-11T21:31:00.932Z,95055.00
2018-04-11T21:33:26.801Z,95046.91
2018-04-11T21:35:55.490Z,95056.06
2018-04-11T21:38:21.334Z,95048.27
2018-04-11T21:40:47.203Z,95048.63
2018-04-11T21:43:13.050Z,95046.21
2018-04-11T21:45:38.898Z,95049.54
2018-04-11T21:48:08.620Z,95050.84
2018-04-11T21:50:34.481Z,95051.88
2018-04-11T21:53:02.114Z,95046.05
2018-04-11T21:55:27.968Z,95051.59
2018-04-11T21:57:56.613Z,95047.81
2018-04-11T22:00:22.497Z,95046.69
2018-04-11T22:02:51.790Z,95042.72
2018-04-11T22:05:17.655Z,95039.36
2018-04-11T22:07:47.445Z,95037.58
2018-04-11T22:10:13.286Z,95029.32
2018-04-11T22:12:41.020Z,95034.17
2018-04-11T22:15:06.888Z,95033.33
2018-04-11T22:17:32.711Z,95033.17
2018-04-11T22:19:58.556Z,95026.06
2018-04-11T22:22:24.432Z,95024.44
2018-04-11T22:24:53.900Z,95018.13
2018-04-11T22:27:19.778Z,95016.81
2018-04-11T22:29:47.645Z,94995.59
2018-04-11T22:32:13.507Z,94996.82
2018-04-11T22:34:42.479Z,94993.25
2018-04-11T22:37:08.347Z,94986.20
2018-04-11T22:39:37.717Z,94983.22
2018-04-11T22:42:03.576Z,94982.30
2018-04-11T22:44:31.905Z,94974.00
2018-04-11T22:46:57.750Z,94974.05
2018-04-11T22:49:27.371Z,94963.55
2018-04-11T22:51:53.210Z,94962.20
2018-04-11T22:54:19.102Z,94964.82
2018-04-11T22:56:44.938Z,94966.80
2018-04-11T22:59:10.803Z,94965.44
2018-04-11T23:01:39.970Z,94960.72
2018-04-11T23:04:05.930Z,94960.77
2018-04-11T23:06:32.677Z,94956.79
2018-04-11T23:08:58.555Z,94948.56
2018-04-11T23:11:27.565Z,94942.86
2018-04-11T23:13:53.441Z,94939.02
2018-04-11T23:16:22.131Z,94944.30
2018-04-11T23:18:48.026Z,94936.70
2018-04-11T23:21:16.930Z,94932.39
2018-04-11T23:23:42.813Z,94922.54
2018-04-11T23:26:11.791Z,94916.89
2018-04-11T23:28:37.649Z,94916.44
2018-04-11T23:31:03.504Z,94914.16
2018-04-11T23:33:29.314Z,94909.39
2018-04-11T23:35:55.165Z,94909.30
2018-04-11T23:38:24.376Z,94911.50
2018-04-11T23:40:50.254Z,94920.80
2018-04-11T23:43:18.082Z,94907.31
2018-04-11T23:45:43.978Z,94902.59
2018-04-11T23:48:13.134Z,94901.37
2018-04-11T23:50:38.989Z,94893.02
2018-04-11T23:53:07.686Z,94885.59
2018-04-11T23:55:33.554Z,94884.02
2018-04-11T23:58:03.302Z,94881.97
